Orcutt, California
Current Conditions -  °F | °C
As of 3:51 AM on Sunday 21 Dec 2014 (Local Time) from KSMX Reporting Station
Clear Clear  
Wind Chill: 56°   Ceiling: Unl
Heat Index: 56°   Visibility: 7mi
Dew Point: 50°   Wind: 9mph
Humidity: 80%   Direction: 320°NW
Pressure: 30.22"   Gusts: NA
Location:  34.8654°N, 120.435°W
Report Text: KSMX 211151Z AUTO 32008KT 7SM CLR 13/10 A3022 RMK AO2 SLP236 T01330100 10156 20128 55005 TSNO $
Loading
Personal Weather Stations






























Interactive Weather Map New forecast layout! Learn more

10-Day Weather Forecast

Advertisements
Track Severe Weather on mobile